Pagrindinis puslapis
METAR-TAF:

METAR-TAF

Oro uostai :

Santo Domingas, Dominikos Respublika

platuma: 18-34-32N, ilguma: 069-58-53W, Aukštis: 15 m

Dabartinis oras

Ataskaita buvo paskelbta 8 valandos ir 46 minutes, ne 18:00 UTC
Ramus vėjas
Temperatūra 32°C
Drėgmė 59%
Slėgis 1016 hPa
Matomumas 10 km arba daugiau
Su prošvaistėmis ne aukštis 2000 ft

METAR: MDJB 071800Z 00000KT 9999 BKN020 32/23 Q1016

Laikas: 22:46 (02:46 UTC)

Prognozė

Ataskaita buvo paskelbta 4 valandos ir 46 minutes, ne 22:00 UTC
Prognozė galioja nuo 08 metu 00 UTC su 08 metu 24 UTC
Vėjas 5 kt iš Rytų/Pietryčių
Matomumas 10 km arba daugiau
Su prošvaistėmis ne aukštis 1800 ft

TAF: MDJB 072200Z 0800/0824 12005KT 9999 BKN018

Orai ataskaitas ir orų prognozės (METAR, TAF).

turimą stotys yra geltonos ir raudonos taškus žemėlapyje.

Perkelti pele per norėdami pamatyti stoties vardą.

Tada spustelėkite, norėdami matyti oro stebėjimo ir prognozės.

Norėdami pakeisti žemėlapį: spustelėkite ant žalios mygtukų su juodo kryžiaus žemyn,; žalią mygtuką su brūkšneliu, jei norite nutolinti; arba žalių rodyklių gretimoms žemėlapius.


METAR-TAF: